sensor_id;sensor_type;location;lat;lon;timestamp;temperature;humidity
18839;DHT22;9548;56.920;14.804;2023-03-01T00:02:07;-1.50;99.90
18839;DHT22;9548;56.920;14.804;2023-03-01T00:04:34;-1.60;99.90
18839;DHT22;9548;56.920;14.804;2023-03-01T00:07:01;-1.50;99.90
18839;DHT22;9548;56.920;14.804;2023-03-01T00:09:28;-1.60;99.90
18839;DHT22;9548;56.920;14.804;2023-03-01T00:11:55;-1.60;99.90
18839;DHT22;9548;56.920;14.804;2023-03-01T00:14:23;-1.70;99.90
18839;DHT22;9548;56.920;14.804;2023-03-01T00:16:50;-1.70;99.90
18839;DHT22;9548;56.920;14.804;2023-03-01T00:19:19;-1.70;99.90
18839;DHT22;9548;56.920;14.804;2023-03-01T00:21:48;-1.70;99.90
18839;DHT22;9548;56.920;14.804;2023-03-01T00:24:15;-1.70;99.90
18839;DHT22;9548;56.920;14.804;2023-03-01T00:26:42;-1.80;99.90
18839;DHT22;9548;56.920;14.804;2023-03-01T00:29:09;-1.80;99.90
18839;DHT22;9548;56.920;14.804;2023-03-01T00:31:37;-1.80;99.90
18839;DHT22;9548;56.920;14.804;2023-03-01T00:34:05;-1.80;99.90
18839;DHT22;9548;56.920;14.804;2023-03-01T00:36:34;-1.80;99.90
18839;DHT22;9548;56.920;14.804;2023-03-01T00:39:01;-1.80;99.90
18839;DHT22;9548;56.920;14.804;2023-03-01T00:41:29;-1.80;99.90
18839;DHT22;9548;56.920;14.804;2023-03-01T00:43:56;-1.80;99.90
18839;DHT22;9548;56.920;14.804;2023-03-01T00:46:25;-1.80;99.90
18839;DHT22;9548;56.920;14.804;2023-03-01T00:48:54;-1.80;99.90
18839;DHT22;9548;56.920;14.804;2023-03-01T00:51:22;-1.80;99.90
18839;DHT22;9548;56.920;14.804;2023-03-01T00:53:50;-1.90;99.90
18839;DHT22;9548;56.920;14.804;2023-03-01T00:56:18;-2.00;99.90
18839;DHT22;9548;56.920;14.804;2023-03-01T00:58:45;-2.00;99.90
18839;DHT22;9548;56.920;14.804;2023-03-01T01:01:14;-2.00;99.90
18839;DHT22;9548;56.920;14.804;2023-03-01T01:03:45;-2.00;99.90
18839;DHT22;9548;56.920;14.804;2023-03-01T01:06:18;-2.00;99.90
18839;DHT22;9548;56.920;14.804;2023-03-01T01:08:45;-2.00;99.90
18839;DHT22;9548;56.920;14.804;2023-03-01T01:11:13;-2.10;99.90
18839;DHT22;9548;56.920;14.804;2023-03-01T01:13:40;-2.10;99.90
18839;DHT22;9548;56.920;14.804;2023-03-01T01:16:07;-2.10;99.90
18839;DHT22;9548;56.920;14.804;2023-03-01T01:18:34;-2.10;99.90
18839;DHT22;9548;56.920;14.804;2023-03-01T01:21:06;-2.20;99.90
18839;DHT22;9548;56.920;14.804;2023-03-01T01:23:35;-2.20;99.90
18839;DHT22;9548;56.920;14.804;2023-03-01T01:26:06;-2.20;99.90
18839;DHT22;9548;56.920;14.804;2023-03-01T01:28:33;-2.20;99.90
18839;DHT22;9548;56.920;14.804;2023-03-01T01:31:00;-2.20;99.90
18839;DHT22;9548;56.920;14.804;2023-03-01T01:33:27;-2.20;99.90
18839;DHT22;9548;56.920;14.804;2023-03-01T01:35:54;-2.30;99.90
18839;DHT22;9548;56.920;14.804;2023-03-01T01:38:21;-2.30;99.90
18839;DHT22;9548;56.920;14.804;2023-03-01T01:40:51;-2.30;99.90
18839;DHT22;9548;56.920;14.804;2023-03-01T01:43:20;-2.40;99.90
18839;DHT22;9548;56.920;14.804;2023-03-01T01:45:48;-2.40;99.90
18839;DHT22;9548;56.920;14.804;2023-03-01T01:48:18;-2.40;99.90
18839;DHT22;9548;56.920;14.804;2023-03-01T01:50:51;-2.30;99.90
18839;DHT22;9548;56.920;14.804;2023-03-01T01:53:21;-2.20;99.90
18839;DHT22;9548;56.920;14.804;2023-03-01T01:55:53;-2.30;99.90
18839;DHT22;9548;56.920;14.804;2023-03-01T01:58:24;-2.20;99.90
18839;DHT22;9548;56.920;14.804;2023-03-01T02:00:53;-2.20;99.90
18839;DHT22;9548;56.920;14.804;2023-03-01T02:03:24;-2.10;99.90
18839;DHT22;9548;56.920;14.804;2023-03-01T02:05:58;-2.20;99.90
18839;DHT22;9548;56.920;14.804;2023-03-01T02:08:28;-2.20;99.90
18839;DHT22;9548;56.920;14.804;2023-03-01T02:10:59;-2.20;99.90
18839;DHT22;9548;56.920;14.804;2023-03-01T02:13:30;-2.20;99.90
18839;DHT22;9548;56.920;14.804;2023-03-01T02:15:57;-2.20;99.90
18839;DHT22;9548;56.920;14.804;2023-03-01T02:18:26;-2.30;99.90
18839;DHT22;9548;56.920;14.804;2023-03-01T02:21:05;-2.30;99.90
18839;DHT22;9548;56.920;14.804;2023-03-01T02:23:36;-2.40;99.90
18839;DHT22;9548;56.920;14.804;2023-03-01T02:26:07;-2.40;99.90
18839;DHT22;9548;56.920;14.804;2023-03-01T02:28:40;-2.40;99.90
18839;DHT22;9548;56.920;14.804;2023-03-01T02:31:09;-2.40;99.90
18839;DHT22;9548;56.920;14.804;2023-03-01T02:33:56;-2.40;99.90
18839;DHT22;9548;56.920;14.804;2023-03-01T02:36:25;-2.40;99.90
18839;DHT22;9548;56.920;14.804;2023-03-01T02:38:56;-2.50;99.90
18839;DHT22;9548;56.920;14.804;2023-03-01T02:41:25;-2.50;99.90
18839;DHT22;9548;56.920;14.804;2023-03-01T02:43:55;-2.50;99.90
18839;DHT22;9548;56.920;14.804;2023-03-01T02:46:24;-2.60;99.90
18839;DHT22;9548;56.920;14.804;2023-03-01T02:48:53;-2.60;99.90
18839;DHT22;9548;56.920;14.804;2023-03-01T02:51:42;-2.60;99.90
18839;DHT22;9548;56.920;14.804;2023-03-01T02:54:17;-2.60;99.90
18839;DHT22;9548;56.920;14.804;2023-03-01T02:56:47;-2.50;99.90
18839;DHT22;9548;56.920;14.804;2023-03-01T02:59:19;-2.30;99.90
18839;DHT22;9548;56.920;14.804;2023-03-01T03:01:46;-2.30;99.90
18839;DHT22;9548;56.920;14.804;2023-03-01T03:04:15;-2.30;99.90
18839;DHT22;9548;56.920;14.804;2023-03-01T03:06:43;-2.40;99.90
18839;DHT22;9548;56.920;14.804;2023-03-01T03:09:10;-2.50;99.90
18839;DHT22;9548;56.920;14.804;2023-03-01T03:11:38;-2.50;99.90
18839;DHT22;9548;56.920;14.804;2023-03-01T03:14:07;-2.60;99.90
18839;DHT22;9548;56.920;14.804;2023-03-01T03:16:40;-2.50;99.90
18839;DHT22;9548;56.920;14.804;2023-03-01T03:19:07;-2.50;99.90
18839;DHT22;9548;56.920;14.804;2023-03-01T03:21:35;-2.50;99.90
18839;DHT22;9548;56.920;14.804;2023-03-01T03:24:02;-2.50;99.90
18839;DHT22;9548;56.920;14.804;2023-03-01T03:26:29;-2.50;99.90
18839;DHT22;9548;56.920;14.804;2023-03-01T03:28:56;-2.60;99.90
18839;DHT22;9548;56.920;14.804;2023-03-01T03:31:23;-2.60;99.90
18839;DHT22;9548;56.920;14.804;2023-03-01T03:33:52;-2.70;99.90
18839;DHT22;9548;56.920;14.804;2023-03-01T03:36:23;-2.80;99.90
18839;DHT22;9548;56.920;14.804;2023-03-01T03:38:50;-2.80;99.90
18839;DHT22;9548;56.920;14.804;2023-03-01T03:41:18;-2.80;99.90
18839;DHT22;9548;56.920;14.804;2023-03-01T03:43:45;-2.70;99.90
18839;DHT22;9548;56.920;14.804;2023-03-01T03:46:12;-2.60;99.90
18839;DHT22;9548;56.920;14.804;2023-03-01T03:48:41;-2.70;99.90
18839;DHT22;9548;56.920;14.804;2023-03-01T03:51:12;-2.70;99.90
18839;DHT22;9548;56.920;14.804;2023-03-01T03:53:39;-2.70;99.90
18839;DHT22;9548;56.920;14.804;2023-03-01T03:56:06;-2.60;99.90
18839;DHT22;9548;56.920;14.804;2023-03-01T03:58:33;-2.70;99.90
18839;DHT22;9548;56.920;14.804;2023-03-01T04:01:00;-2.70;99.90
18839;DHT22;9548;56.920;14.804;2023-03-01T04:03:29;-2.70;99.90
18839;DHT22;9548;56.920;14.804;2023-03-01T04:05:57;-2.70;99.90
18839;DHT22;9548;56.920;14.804;2023-03-01T04:08:26;-2.80;99.90
18839;DHT22;9548;56.920;14.804;2023-03-01T04:10:58;-2.80;99.90
18839;DHT22;9548;56.920;14.804;2023-03-01T04:13:26;-2.80;99.90
18839;DHT22;9548;56.920;14.804;2023-03-01T04:15:53;-2.80;99.90
18839;DHT22;9548;56.920;14.804;2023-03-01T04:18:22;-2.80;99.90
18839;DHT22;9548;56.920;14.804;2023-03-01T04:20:50;-2.70;99.90
18839;DHT22;9548;56.920;14.804;2023-03-01T04:23:20;-2.80;99.90
18839;DHT22;9548;56.920;14.804;2023-03-01T04:25:51;-2.80;99.90
18839;DHT22;9548;56.920;14.804;2023-03-01T04:28:21;-2.90;99.90
18839;DHT22;9548;56.920;14.804;2023-03-01T04:30:50;-3.00;99.90
18839;DHT22;9548;56.920;14.804;2023-03-01T04:33:17;-3.00;99.90
18839;DHT22;9548;56.920;14.804;2023-03-01T04:35:44;-3.10;99.90
18839;DHT22;9548;56.920;14.804;2023-03-01T04:38:11;-3.20;99.90
18839;DHT22;9548;56.920;14.804;2023-03-01T04:40:38;-3.20;99.90
18839;DHT22;9548;56.920;14.804;2023-03-01T04:43:10;-3.20;99.90
18839;DHT22;9548;56.920;14.804;2023-03-01T04:45:37;-3.20;99.90
18839;DHT22;9548;56.920;14.804;2023-03-01T04:48:04;-3.20;99.90
18839;DHT22;9548;56.920;14.804;2023-03-01T04:50:31;-3.20;99.90
18839;DHT22;9548;56.920;14.804;2023-03-01T04:52:58;-3.30;99.90
18839;DHT22;9548;56.920;14.804;2023-03-01T04:55:25;-3.30;99.90
18839;DHT22;9548;56.920;14.804;2023-03-01T04:57:53;-3.40;99.90
18839;DHT22;9548;56.920;14.804;2023-03-01T05:00:22;-3.40;99.90
18839;DHT22;9548;56.920;14.804;2023-03-01T05:02:52;-3.30;99.90
18839;DHT22;9548;56.920;14.804;2023-03-01T05:05:21;-3.30;99.90
18839;DHT22;9548;56.920;14.804;2023-03-01T05:07:51;-3.30;99.90
18839;DHT22;9548;56.920;14.804;2023-03-01T05:10:18;-3.10;99.90
18839;DHT22;9548;56.920;14.804;2023-03-01T05:12:45;-3.10;99.90
18839;DHT22;9548;56.920;14.804;2023-03-01T05:15:13;-3.10;99.90
18839;DHT22;9548;56.920;14.804;2023-03-01T05:17:41;-3.10;99.90
18839;DHT22;9548;56.920;14.804;2023-03-01T05:20:09;-3.20;99.90
18839;DHT22;9548;56.920;14.804;2023-03-01T05:22:37;-3.30;99.90
18839;DHT22;9548;56.920;14.804;2023-03-01T05:25:05;-3.30;99.90
18839;DHT22;9548;56.920;14.804;2023-03-01T05:27:33;-3.30;99.90
18839;DHT22;9548;56.920;14.804;2023-03-01T05:30:00;-3.30;99.90
18839;DHT22;9548;56.920;14.804;2023-03-01T05:32:41;-3.30;99.90
18839;DHT22;9548;56.920;14.804;2023-03-01T05:35:10;-3.20;99.90
18839;DHT22;9548;56.920;14.804;2023-03-01T05:37:39;-3.10;99.90
18839;DHT22;9548;56.920;14.804;2023-03-01T05:40:08;-3.20;99.90
18839;DHT22;9548;56.920;14.804;2023-03-01T05:42:42;-3.20;99.90
18839;DHT22;9548;56.920;14.804;2023-03-01T05:45:09;-3.20;99.90
18839;DHT22;9548;56.920;14.804;2023-03-01T05:47:38;-3.20;99.90
18839;DHT22;9548;56.920;14.804;2023-03-01T05:50:11;-3.30;99.90
18839;DHT22;9548;56.920;14.804;2023-03-01T05:52:39;-3.30;99.90
18839;DHT22;9548;56.920;14.804;2023-03-01T05:55:06;-3.10;99.90
18839;DHT22;9548;56.920;14.804;2023-03-01T05:57:33;-3.10;99.90
18839;DHT22;9548;56.920;14.804;2023-03-01T06:00:00;-3.10;99.90
18839;DHT22;9548;56.920;14.804;2023-03-01T06:02:27;-3.10;99.90
18839;DHT22;9548;56.920;14.804;2023-03-01T06:04:54;-3.20;99.90
18839;DHT22;9548;56.920;14.804;2023-03-01T06:07:23;-3.20;99.90
18839;DHT22;9548;56.920;14.804;2023-03-01T06:09:50;-3.30;99.90
18839;DHT22;9548;56.920;14.804;2023-03-01T06:12:17;-3.30;99.90
18839;DHT22;9548;56.920;14.804;2023-03-01T06:14:45;-3.20;99.90
18839;DHT22;9548;56.920;14.804;2023-03-01T06:17:13;-3.20;99.90
18839;DHT22;9548;56.920;14.804;2023-03-01T06:19:40;-3.20;99.90
18839;DHT22;9548;56.920;14.804;2023-03-01T06:22:07;-3.20;99.90
18839;DHT22;9548;56.920;14.804;2023-03-01T06:24:35;-3.20;99.90
18839;DHT22;9548;56.920;14.804;2023-03-01T06:27:02;-3.20;99.90
18839;DHT22;9548;56.920;14.804;2023-03-01T06:29:29;-3.10;99.90
18839;DHT22;9548;56.920;14.804;2023-03-01T06:31:56;-3.10;99.90
18839;DHT22;9548;56.920;14.804;2023-03-01T06:34:23;-3.10;99.90
18839;DHT22;9548;56.920;14.804;2023-03-01T06:36:50;-3.10;99.90
18839;DHT22;9548;56.920;14.804;2023-03-01T06:39:17;-3.00;99.90
18839;DHT22;9548;56.920;14.804;2023-03-01T06:41:45;-3.00;99.90
18839;DHT22;9548;56.920;14.804;2023-03-01T06:44:12;-3.00;99.90
18839;DHT22;9548;56.920;14.804;2023-03-01T06:46:39;-2.90;99.90
18839;DHT22;9548;56.920;14.804;2023-03-01T06:49:07;-2.80;99.90
18839;DHT22;9548;56.920;14.804;2023-03-01T06:51:35;-2.80;99.90
18839;DHT22;9548;56.920;14.804;2023-03-01T06:54:03;-2.70;99.90
18839;DHT22;9548;56.920;14.804;2023-03-01T06:56:30;-2.60;99.90
18839;DHT22;9548;56.920;14.804;2023-03-01T06:58:58;-2.50;99.90
18839;DHT22;9548;56.920;14.804;2023-03-01T07:01:25;-2.30;99.90
18839;DHT22;9548;56.920;14.804;2023-03-01T07:03:52;-2.20;99.90
18839;DHT22;9548;56.920;14.804;2023-03-01T07:06:19;-2.10;99.90
18839;DHT22;9548;56.920;14.804;2023-03-01T07:08:46;-2.00;99.90
18839;DHT22;9548;56.920;14.804;2023-03-01T07:11:14;-1.90;99.90
18839;DHT22;9548;56.920;14.804;2023-03-01T07:13:41;-1.90;99.90
18839;DHT22;9548;56.920;14.804;2023-03-01T07:16:09;-1.80;99.90
18839;DHT22;9548;56.920;14.804;2023-03-01T07:18:36;-1.70;99.90
18839;DHT22;9548;56.920;14.804;2023-03-01T07:21:07;-1.60;99.90
18839;DHT22;9548;56.920;14.804;2023-03-01T07:23:34;-1.50;99.90
18839;DHT22;9548;56.920;14.804;2023-03-01T07:26:01;-1.30;99.90
18839;DHT22;9548;56.920;14.804;2023-03-01T07:28:28;-1.20;99.90
18839;DHT22;9548;56.920;14.804;2023-03-01T07:31:00;-1.00;99.90
18839;DHT22;9548;56.920;14.804;2023-03-01T07:33:29;-0.90;99.90
18839;DHT22;9548;56.920;14.804;2023-03-01T07:35:56;-0.70;99.90
18839;DHT22;9548;56.920;14.804;2023-03-01T07:38:24;-0.60;99.90
18839;DHT22;9548;56.920;14.804;2023-03-01T07:40:51;-0.40;99.90
18839;DHT22;9548;56.920;14.804;2023-03-01T07:43:18;-0.30;99.90
18839;DHT22;9548;56.920;14.804;2023-03-01T07:45:46;-0.20;99.90
18839;DHT22;9548;56.920;14.804;2023-03-01T07:48:13;-0.20;99.90
18839;DHT22;9548;56.920;14.804;2023-03-01T07:50:41;-0.10;99.90
18839;DHT22;9548;56.920;14.804;2023-03-01T07:53:08;0.00;99.90
18839;DHT22;9548;56.920;14.804;2023-03-01T07:55:35;0.10;99.90
18839;DHT22;9548;56.920;14.804;2023-03-01T07:58:02;0.10;99.90
18839;DHT22;9548;56.920;14.804;2023-03-01T08:00:29;0.30;99.90
18839;DHT22;9548;56.920;14.804;2023-03-01T08:02:59;0.40;99.90
18839;DHT22;9548;56.920;14.804;2023-03-01T08:05:26;0.50;99.90
18839;DHT22;9548;56.920;14.804;2023-03-01T08:07:54;0.60;99.90
18839;DHT22;9548;56.920;14.804;2023-03-01T08:10:21;0.60;99.90
18839;DHT22;9548;56.920;14.804;2023-03-01T08:12:51;0.70;99.90
18839;DHT22;9548;56.920;14.804;2023-03-01T08:15:18;0.70;99.90
18839;DHT22;9548;56.920;14.804;2023-03-01T08:17:45;0.80;99.90
18839;DHT22;9548;56.920;14.804;2023-03-01T08:20:12;0.90;99.90
18839;DHT22;9548;56.920;14.804;2023-03-01T08:22:39;0.90;99.90
18839;DHT22;9548;56.920;14.804;2023-03-01T08:25:08;1.10;99.90
18839;DHT22;9548;56.920;14.804;2023-03-01T08:27:35;1.20;99.90
18839;DHT22;9548;56.920;14.804;2023-03-01T08:30:02;1.30;99.90
18839;DHT22;9548;56.920;14.804;2023-03-01T08:32:29;1.40;99.90
18839;DHT22;9548;56.920;14.804;2023-03-01T08:34:56;1.50;99.90
18839;DHT22;9548;56.920;14.804;2023-03-01T08:37:23;1.50;99.90
18839;DHT22;9548;56.920;14.804;2023-03-01T08:39:50;1.60;99.90
18839;DHT22;9548;56.920;14.804;2023-03-01T08:42:18;1.70;99.90
18839;DHT22;9548;56.920;14.804;2023-03-01T08:44:45;1.80;99.90
18839;DHT22;9548;56.920;14.804;2023-03-01T08:47:12;2.00;99.90
18839;DHT22;9548;56.920;14.804;2023-03-01T08:49:40;2.10;99.90
18839;DHT22;9548;56.920;14.804;2023-03-01T08:52:07;2.40;99.90
18839;DHT22;9548;56.920;14.804;2023-03-01T08:54:34;2.60;99.90
18839;DHT22;9548;56.920;14.804;2023-03-01T08:57:01;2.70;99.90
18839;DHT22;9548;56.920;14.804;2023-03-01T08:59:30;2.90;99.90
18839;DHT22;9548;56.920;14.804;2023-03-01T09:02:01;3.00;99.90
18839;DHT22;9548;56.920;14.804;2023-03-01T09:04:28;3.20;99.90
18839;DHT22;9548;56.920;14.804;2023-03-01T09:06:54;3.30;99.90
18839;DHT22;9548;56.920;14.804;2023-03-01T09:09:24;3.40;99.90
18839;DHT22;9548;56.920;14.804;2023-03-01T09:11:51;3.50;99.90
18839;DHT22;9548;56.920;14.804;2023-03-01T09:14:18;3.70;99.90
18839;DHT22;9548;56.920;14.804;2023-03-01T09:16:46;3.80;99.90
18839;DHT22;9548;56.920;14.804;2023-03-01T09:19:14;4.00;99.90
18839;DHT22;9548;56.920;14.804;2023-03-01T09:21:41;4.10;99.90
18839;DHT22;9548;56.920;14.804;2023-03-01T09:24:20;4.30;99.90
18839;DHT22;9548;56.920;14.804;2023-03-01T09:26:47;4.50;99.90
18839;DHT22;9548;56.920;14.804;2023-03-01T09:29:14;4.60;99.90
18839;DHT22;9548;56.920;14.804;2023-03-01T09:31:41;4.70;99.90
18839;DHT22;9548;56.920;14.804;2023-03-01T09:34:10;4.70;99.90
18839;DHT22;9548;56.920;14.804;2023-03-01T09:36:37;4.90;99.90
18839;DHT22;9548;56.920;14.804;2023-03-01T09:39:04;5.00;99.90
18839;DHT22;9548;56.920;14.804;2023-03-01T09:41:44;5.20;99.90
18839;DHT22;9548;56.920;14.804;2023-03-01T09:44:19;5.50;99.90
18839;DHT22;9548;56.920;14.804;2023-03-01T09:46:48;5.80;99.90
18839;DHT22;9548;56.920;14.804;2023-03-01T09:49:19;6.10;99.90
18839;DHT22;9548;56.920;14.804;2023-03-01T09:51:55;6.40;99.90
18839;DHT22;9548;56.920;14.804;2023-03-01T09:54:22;6.60;99.90
18839;DHT22;9548;56.920;14.804;2023-03-01T09:57:04;6.80;99.90
18839;DHT22;9548;56.920;14.804;2023-03-01T09:59:42;7.00;99.90
18839;DHT22;9548;56.920;14.804;2023-03-01T10:02:22;7.10;99.90
18839;DHT22;9548;56.920;14.804;2023-03-01T10:04:53;7.20;99.90
18839;DHT22;9548;56.920;14.804;2023-03-01T10:07:29;7.40;99.90
18839;DHT22;9548;56.920;14.804;2023-03-01T10:09:59;7.60;99.90
18839;DHT22;9548;56.920;14.804;2023-03-01T10:12:34;7.70;99.90
18839;DHT22;9548;56.920;14.804;2023-03-01T10:15:05;7.90;99.90
18839;DHT22;9548;56.920;14.804;2023-03-01T10:17:36;8.00;99.90
18839;DHT22;9548;56.920;14.804;2023-03-01T10:20:17;8.10;99.90
18839;DHT22;9548;56.920;14.804;2023-03-01T10:22:44;8.40;99.90
18839;DHT22;9548;56.920;14.804;2023-03-01T10:25:23;8.70;99.90
18839;DHT22;9548;56.920;14.804;2023-03-01T10:27:52;9.10;99.90
18839;DHT22;9548;56.920;14.804;2023-03-01T10:30:22;9.40;99.90
18839;DHT22;9548;56.920;14.804;2023-03-01T10:32:51;9.80;99.90
18839;DHT22;9548;56.920;14.804;2023-03-01T10:35:23;10.50;99.90
18839;DHT22;9548;56.920;14.804;2023-03-01T10:37:58;11.00;99.90
18839;DHT22;9548;56.920;14.804;2023-03-01T10:40:28;11.50;99.90
18839;DHT22;9548;56.920;14.804;2023-03-01T10:42:58;12.10;99.90
18839;DHT22;9548;56.920;14.804;2023-03-01T10:45:34;13.00;99.90
18839;DHT22;9548;56.920;14.804;2023-03-01T10:48:11;14.10;99.90
18839;DHT22;9548;56.920;14.804;2023-03-01T10:50:41;15.30;99.90
18839;DHT22;9548;56.920;14.804;2023-03-01T10:53:21;16.60;99.90
18839;DHT22;9548;56.920;14.804;2023-03-01T10:55:57;16.90;95.70
18839;DHT22;9548;56.920;14.804;2023-03-01T10:58:24;17.40;94.60
18839;DHT22;9548;56.920;14.804;2023-03-01T11:00:53;17.10;95.00
18839;DHT22;9548;56.920;14.804;2023-03-01T11:03:25;18.00;93.60
18839;DHT22;9548;56.920;14.804;2023-03-01T11:06:04;19.10;92.40
18839;DHT22;9548;56.920;14.804;2023-03-01T11:11:22;18.50;90.90
18839;DHT22;9548;56.920;14.804;2023-03-01T11:13:56;18.90;89.60
18839;DHT22;9548;56.920;14.804;2023-03-01T11:16:26;17.90;90.80
18839;DHT22;9548;56.920;14.804;2023-03-01T11:19:03;18.10;91.70
18839;DHT22;9548;56.920;14.804;2023-03-01T11:21:33;19.00;90.10
18839;DHT22;9548;56.920;14.804;2023-03-01T11:24:02;19.70;88.50
18839;DHT22;9548;56.920;14.804;2023-03-01T11:26:31;20.60;85.60
18839;DHT22;9548;56.920;14.804;2023-03-01T11:29:05;20.10;85.20
18839;DHT22;9548;56.920;14.804;2023-03-01T11:31:34;20.60;84.90
18839;DHT22;9548;56.920;14.804;2023-03-01T11:34:06;21.20;84.50
18839;DHT22;9548;56.920;14.804;2023-03-01T11:36:42;21.70;80.50
18839;DHT22;9548;56.920;14.804;2023-03-01T11:39:21;21.50;79.80
18839;DHT22;9548;56.920;14.804;2023-03-01T11:42:00;21.70;80.60
18839;DHT22;9548;56.920;14.804;2023-03-01T11:44:31;22.20;76.70
18839;DHT22;9548;56.920;14.804;2023-03-01T11:47:17;21.40;75.90
18839;DHT22;9548;56.920;14.804;2023-03-01T11:49:58;20.20;78.00
18839;DHT22;9548;56.920;14.804;2023-03-01T11:52:35;19.70;78.70
18839;DHT22;9548;56.920;14.804;2023-03-01T11:55:30;20.60;79.20
18839;DHT22;9548;56.920;14.804;2023-03-01T11:58:10;20.00;78.10
18839;DHT22;9548;56.920;14.804;2023-03-01T12:00:53;21.30;79.00
18839;DHT22;9548;56.920;14.804;2023-03-01T12:03:33;22.60;74.80
18839;DHT22;9548;56.920;14.804;2023-03-01T12:06:35;23.60;73.00
18839;DHT22;9548;56.920;14.804;2023-03-01T12:09:17;24.20;69.90
18839;DHT22;9548;56.920;14.804;2023-03-01T12:12:07;23.40;67.70
18839;DHT22;9548;56.920;14.804;2023-03-01T12:14:52;22.30;69.50
18839;DHT22;9548;56.920;14.804;2023-03-01T12:20:33;21.10;75.10
18839;DHT22;9548;56.920;14.804;2023-03-01T12:23:29;22.00;70.50
18839;DHT22;9548;56.920;14.804;2023-03-01T12:26:04;21.30;70.20
18839;DHT22;9548;56.920;14.804;2023-03-01T12:29:09;22.50;71.30
18839;DHT22;9548;56.920;14.804;2023-03-01T12:37:51;23.20;69.00
18839;DHT22;9548;56.920;14.804;2023-03-01T12:40:31;24.20;67.40
18839;DHT22;9548;56.920;14.804;2023-03-01T12:43:11;25.70;63.70
18839;DHT22;9548;56.920;14.804;2023-03-01T12:45:58;25.00;61.00
18839;DHT22;9548;56.920;14.804;2023-03-01T12:48:36;25.10;62.40
18839;DHT22;9548;56.920;14.804;2023-03-01T12:51:07;25.80;60.00
18839;DHT22;9548;56.920;14.804;2023-03-01T12:53:39;24.90;60.20
18839;DHT22;9548;56.920;14.804;2023-03-01T12:56:09;25.20;60.10
18839;DHT22;9548;56.920;14.804;2023-03-01T12:58:42;25.80;59.30
18839;DHT22;9548;56.920;14.804;2023-03-01T13:01:19;26.60;58.90
18839;DHT22;9548;56.920;14.804;2023-03-01T13:04:12;27.30;57.20
18839;DHT22;9548;56.920;14.804;2023-03-01T13:06:44;28.30;55.60
18839;DHT22;9548;56.920;14.804;2023-03-01T13:09:21;29.00;54.70
18839;DHT22;9548;56.920;14.804;2023-03-01T13:11:50;28.00;52.60
18839;DHT22;9548;56.920;14.804;2023-03-01T13:14:46;27.20;52.80
18839;DHT22;9548;56.920;14.804;2023-03-01T13:17:33;27.80;53.70
18839;DHT22;9548;56.920;14.804;2023-03-01T13:20:01;26.80;53.50
18839;DHT22;9548;56.920;14.804;2023-03-01T13:22:32;25.50;53.40
18839;DHT22;9548;56.920;14.804;2023-03-01T13:25:13;25.20;54.50
18839;DHT22;9548;56.920;14.804;2023-03-01T13:27:40;24.70;54.50
18839;DHT22;9548;56.920;14.804;2023-03-01T13:30:40;24.20;54.10
18839;DHT22;9548;56.920;14.804;2023-03-01T13:33:41;23.60;54.20
18839;DHT22;9548;56.920;14.804;2023-03-01T13:36:09;24.40;55.30
18839;DHT22;9548;56.920;14.804;2023-03-01T13:38:54;22.80;55.60
18839;DHT22;9548;56.920;14.804;2023-03-01T13:41:50;22.70;55.70
18839;DHT22;9548;56.920;14.804;2023-03-01T13:44:30;23.60;56.20
18839;DHT22;9548;56.920;14.804;2023-03-01T13:47:06;24.80;54.70
18839;DHT22;9548;56.920;14.804;2023-03-01T13:49:43;26.50;53.20
18839;DHT22;9548;56.920;14.804;2023-03-01T13:52:39;27.60;52.70
18839;DHT22;9548;56.920;14.804;2023-03-01T13:55:17;29.10;52.40
18839;DHT22;9548;56.920;14.804;2023-03-01T13:57:48;30.40;48.90
18839;DHT22;9548;56.920;14.804;2023-03-01T14:00:28;30.20;48.90
18839;DHT22;9548;56.920;14.804;2023-03-01T14:03:05;30.90;47.90
18839;DHT22;9548;56.920;14.804;2023-03-01T14:05:36;30.00;46.70
18839;DHT22;9548;56.920;14.804;2023-03-01T14:08:03;27.40;46.90
18839;DHT22;9548;56.920;14.804;2023-03-01T14:10:36;26.50;48.70
18839;DHT22;9548;56.920;14.804;2023-03-01T14:13:24;25.30;49.10
18839;DHT22;9548;56.920;14.804;2023-03-01T14:16:09;24.70;49.90
18839;DHT22;9548;56.920;14.804;2023-03-01T14:18:46;24.60;50.10
18839;DHT22;9548;56.920;14.804;2023-03-01T14:21:15;23.50;51.20
18839;DHT22;9548;56.920;14.804;2023-03-01T14:23:42;21.90;53.00
18839;DHT22;9548;56.920;14.804;2023-03-01T14:26:10;21.10;53.90
18839;DHT22;9548;56.920;14.804;2023-03-01T14:28:38;20.40;54.80
18839;DHT22;9548;56.920;14.804;2023-03-01T14:31:31;19.60;55.00
18839;DHT22;9548;56.920;14.804;2023-03-01T14:33:59;19.00;58.40
18839;DHT22;9548;56.920;14.804;2023-03-01T14:36:28;18.70;57.70
18839;DHT22;9548;56.920;14.804;2023-03-01T14:38:55;18.40;57.30
18839;DHT22;9548;56.920;14.804;2023-03-01T14:41:26;17.90;58.30
18839;DHT22;9548;56.920;14.804;2023-03-01T14:43:57;16.80;59.40
18839;DHT22;9548;56.920;14.804;2023-03-01T14:46:28;16.10;61.50
18839;DHT22;9548;56.920;14.804;2023-03-01T14:49:01;15.90;63.30
18839;DHT22;9548;56.920;14.804;2023-03-01T14:51:28;15.40;62.80
18839;DHT22;9548;56.920;14.804;2023-03-01T14:53:56;15.20;64.60
18839;DHT22;9548;56.920;14.804;2023-03-01T14:56:23;15.30;64.30
18839;DHT22;9548;56.920;14.804;2023-03-01T14:58:53;15.60;65.30
18839;DHT22;9548;56.920;14.804;2023-03-01T15:01:24;16.00;64.40
18839;DHT22;9548;56.920;14.804;2023-03-01T15:03:51;16.50;63.10
18839;DHT22;9548;56.920;14.804;2023-03-01T15:06:22;16.90;62.40
18839;DHT22;9548;56.920;14.804;2023-03-01T15:08:51;17.30;60.50
18839;DHT22;9548;56.920;14.804;2023-03-01T15:11:21;17.90;61.00
18839;DHT22;9548;56.920;14.804;2023-03-01T15:13:50;18.30;58.90
18839;DHT22;9548;56.920;14.804;2023-03-01T15:16:18;18.90;59.10
18839;DHT22;9548;56.920;14.804;2023-03-01T15:18:47;19.30;58.80
18839;DHT22;9548;56.920;14.804;2023-03-01T15:21:21;19.50;57.00
18839;DHT22;9548;56.920;14.804;2023-03-01T15:23:51;19.50;57.40
18839;DHT22;9548;56.920;14.804;2023-03-01T15:26:24;19.40;58.80
18839;DHT22;9548;56.920;14.804;2023-03-01T15:28:52;18.60;59.00
18839;DHT22;9548;56.920;14.804;2023-03-01T15:31:25;17.40;61.60
18839;DHT22;9548;56.920;14.804;2023-03-01T15:33:52;15.90;62.00
18839;DHT22;9548;56.920;14.804;2023-03-01T15:36:38;14.70;64.50
18839;DHT22;9548;56.920;14.804;2023-03-01T15:39:29;13.60;68.50
18839;DHT22;9548;56.920;14.804;2023-03-01T15:41:59;12.60;70.80
18839;DHT22;9548;56.920;14.804;2023-03-01T15:44:28;11.80;72.90
18839;DHT22;9548;56.920;14.804;2023-03-01T15:46:55;11.20;75.00
18839;DHT22;9548;56.920;14.804;2023-03-01T15:49:31;10.70;78.10
18839;DHT22;9548;56.920;14.804;2023-03-01T15:52:01;10.20;78.70
18839;DHT22;9548;56.920;14.804;2023-03-01T15:54:29;9.80;80.20
18839;DHT22;9548;56.920;14.804;2023-03-01T15:56:56;9.40;81.20
18839;DHT22;9548;56.920;14.804;2023-03-01T15:59:23;9.10;81.80
18839;DHT22;9548;56.920;14.804;2023-03-01T16:01:50;8.80;83.00
18839;DHT22;9548;56.920;14.804;2023-03-01T16:04:18;8.50;88.80
18839;DHT22;9548;56.920;14.804;2023-03-01T16:06:49;8.30;86.80
18839;DHT22;9548;56.920;14.804;2023-03-01T16:09:21;8.10;86.40
18839;DHT22;9548;56.920;14.804;2023-03-01T16:11:49;7.80;88.40